Time;durP1;ratioP1;P1;durP2;ratioP2;P2;SDS_P1;SDS_P2;PMS_P1;PMS_P2;Temp;Humidity;BMP_temperature;BMP_pressure;BME280_temperature;BME280_humidity;BME280_pressure;Samples;Min_cycle;Max_cycle;Signal;HPM_P1;HPM_P2
2022/01/16 00:01:02;;;;;;;75.70;32.10;;;2.90;99.90;;;;;;5113582;28;20366;-92
2022/01/16 00:06:13;;;;;;;60.50;27.58;;;2.80;99.90;;;;;;5114001;28;19920;-92
2022/01/16 00:08:39;;;;;;;54.92;26.95;;;2.80;99.90;;;;;;5113922;28;20118;-91
2022/01/16 00:11:04;;;;;;;57.47;26.63;;;2.70;99.90;;;;;;5096787;28;20447;-91
2022/01/16 00:13:30;;;;;;;58.63;28.27;;;2.70;99.90;;;;;;5096569;28;20034;-91
2022/01/16 00:15:56;;;;;;;58.55;27.85;;;2.60;99.90;;;;;;5096723;28;20047;-92
2022/01/16 00:18:25;;;;;;;64.97;28.15;;;2.60;99.90;;;;;;5113601;28;20046;-92
2022/01/16 00:20:51;;;;;;;63.05;28.90;;;2.60;99.90;;;;;;5096787;28;20519;-92
2022/01/16 00:23:26;;;;;;;55.58;27.30;;;2.60;99.90;;;;;;5096685;28;20100;-92
2022/01/16 00:25:54;;;;;;;60.25;27.33;;;2.60;99.90;;;;;;5095471;28;20481;-93
2022/01/16 00:28:20;;;;;;;56.92;26.10;;;2.50;99.90;;;;;;5085124;28;20595;-93
2022/01/16 00:30:46;;;;;;;60.88;27.48;;;2.50;99.90;;;;;;5099231;28;20122;-93
2022/01/16 00:33:12;;;;;;;54.58;26.30;;;2.50;99.90;;;;;;5101700;28;20032;-92
2022/01/16 00:35:38;;;;;;;56.45;28.02;;;2.50;99.90;;;;;;5100945;28;20065;-92
2022/01/16 00:38:04;;;;;;;59.38;27.60;;;2.50;99.90;;;;;;5100716;28;20076;-93
2022/01/16 00:40:30;;;;;;;58.97;26.77;;;2.50;99.90;;;;;;5100277;28;20042;-93
2022/01/16 00:42:57;;;;;;;56.30;25.60;;;2.50;99.90;;;;;;5085965;28;20123;-93
2022/01/16 00:45:24;;;;;;;55.67;25.70;;;2.50;99.90;;;;;;5086456;28;20032;-93
2022/01/16 00:47:49;;;;;;;58.33;26.50;;;2.50;99.90;;;;;;5101576;28;20500;-92
2022/01/16 00:50:15;;;;;;;60.22;28.38;;;2.50;99.90;;;;;;5103042;28;20059;-93
2022/01/16 00:52:41;;;;;;;61.53;27.55;;;2.50;99.90;;;;;;5102707;28;20175;-93
2022/01/16 00:55:07;;;;;;;62.88;27.23;;;2.50;99.90;;;;;;5085324;28;20390;-93
2022/01/16 00:57:33;;;;;;;62.25;27.70;;;2.50;99.90;;;;;;5103589;28;20035;-92
2022/01/16 00:59:58;;;;;;;64.10;28.35;;;2.40;99.90;;;;;;5083329;28;20039;-92
2022/01/16 01:02:24;;;;;;;63.92;27.75;;;2.50;99.90;;;;;;5075072;28;20044;-92
2022/01/16 01:04:50;;;;;;;55.55;25.58;;;2.50;99.90;;;;;;5091835;28;20048;-91
2022/01/16 01:07:16;;;;;;;62.85;25.77;;;2.40;99.90;;;;;;5092806;28;20036;-92
2022/01/16 01:09:42;;;;;;;58.53;26.67;;;2.40;99.90;;;;;;5092351;28;20048;-91
2022/01/16 01:12:09;;;;;;;61.85;29.10;;;2.40;99.90;;;;;;5092395;28;20043;-92
2022/01/16 01:14:53;;;;;;;59.50;25.55;;;2.40;99.90;;;;;;5091827;28;20127;-93
2022/01/16 01:17:22;;;;;;;60.55;25.23;;;2.40;99.90;;;;;;5092439;28;20044;-92
2022/01/16 01:19:48;;;;;;;63.15;27.02;;;2.40;99.90;;;;;;5092180;28;20048;-92
2022/01/16 01:22:13;;;;;;;63.88;29.20;;;2.40;99.90;;;;;;5092339;28;20085;-93
2022/01/16 01:24:39;;;;;;;60.45;26.52;;;2.30;99.90;;;;;;5092159;28;20040;-93
2022/01/16 01:27:26;;;;;;;64.85;30.73;;;2.30;99.90;;;;;;5091924;28;20043;-92
2022/01/16 01:30:02;;;;;;;61.42;27.15;;;2.30;99.90;;;;;;5074880;28;20086;-93
2022/01/16 01:32:30;;;;;;;68.55;27.10;;;2.30;99.90;;;;;;5092359;28;20040;-92
2022/01/16 01:34:55;;;;;;;72.68;30.25;;;2.30;99.90;;;;;;5074733;28;20036;-92
2022/01/16 01:37:21;;;;;;;66.55;29.30;;;2.30;99.90;;;;;;5089971;28;20039;-92
2022/01/16 01:39:47;;;;;;;68.22;29.63;;;2.20;99.90;;;;;;5112279;28;20451;-92
2022/01/16 01:42:12;;;;;;;65.25;27.92;;;2.20;99.90;;;;;;5111751;28;20036;-92
2022/01/16 01:52:55;;;;;;;64.57;28.83;;;2.10;99.90;;;;;;5112402;28;20406;-92
2022/01/16 01:55:21;;;;;;;67.72;30.10;;;2.10;99.90;;;;;;5094745;28;20043;-91
2022/01/16 01:57:47;;;;;;;73.28;33.70;;;2.10;99.90;;;;;;5111846;28;20043;-92
2022/01/16 02:00:17;;;;;;;65.25;27.98;;;2.00;99.90;;;;;;5111665;28;20046;-93
2022/01/16 02:05:31;;;;;;;70.25;28.55;;;2.00;99.90;;;;;;5112216;28;20481;-92
2022/01/16 02:07:57;;;;;;;65.78;27.75;;;2.00;99.90;;;;;;5094721;28;20042;-92
2022/01/16 02:10:24;;;;;;;73.15;30.88;;;2.00;99.90;;;;;;5112084;28;20042;-93
2022/01/16 02:12:57;;;;;;;63.67;26.40;;;1.90;99.90;;;;;;5112512;28;20027;-92
2022/01/16 02:27:55;;;;;;;62.85;26.42;;;1.90;99.90;;;;;;5112285;28;20114;-92
2022/01/16 02:32:25;;;;;;;67.75;26.08;;;1.90;99.90;;;;;;5091120;28;20079;-91
2022/01/16 02:34:47;;;;;;;65.32;24.70;;;1.90;99.90;;;;;;5090611;28;20044;-92
2022/01/16 02:37:15;;;;;;;75.13;27.85;;;1.90;99.90;;;;;;5087826;28;20036;-92
2022/01/16 02:39:49;;;;;;;71.68;28.08;;;1.90;99.90;;;;;;5111287;28;20047;-92
2022/01/16 02:42:16;;;;;;;84.20;29.23;;;1.90;99.90;;;;;;5094379;28;20039;-92
2022/01/16 02:44:47;;;;;;;79.63;29.13;;;2.00;99.90;;;;;;5110750;28;20054;-91
2022/01/16 02:47:18;;;;;;;86.57;30.20;;;2.00;99.90;;;;;;5094021;28;20062;-92
2022/01/16 02:49:47;;;;;;;83.57;31.08;;;2.00;99.90;;;;;;5093969;28;20250;-92
2022/01/16 02:52:17;;;;;;;88.10;33.33;;;2.00;99.90;;;;;;5110399;28;20527;-92
2022/01/16 02:54:44;;;;;;;86.53;32.03;;;2.00;99.90;;;;;;5093717;28;20070;-92
2022/01/16 02:57:12;;;;;;;93.93;33.72;;;2.10;99.90;;;;;;5093681;28;20040;-93
2022/01/16 02:59:41;;;;;;;96.68;33.17;;;2.10;99.90;;;;;;5111077;28;20100;-92
2022/01/16 03:02:07;;;;;;;110.18;32.83;;;2.10;99.90;;;;;;5094018;28;20504;-93
2022/01/16 03:04:33;;;;;;;101.90;32.85;;;2.10;99.90;;;;;;5110376;28;20051;-92
2022/01/16 03:07:01;;;;;;;103.68;35.25;;;2.10;99.90;;;;;;5093425;28;20046;-92
2022/01/16 03:09:35;;;;;;;90.00;32.67;;;2.10;99.90;;;;;;5093355;28;20397;-92
2022/01/16 03:12:02;;;;;;;110.50;34.95;;;2.20;99.90;;;;;;5093466;28;20507;-92
2022/01/16 03:14:27;;;;;;;99.95;35.33;;;2.20;99.90;;;;;;5093004;28;20055;-92
2022/01/16 03:16:53;;;;;;;98.60;32.88;;;2.20;99.90;;;;;;5110401;28;20097;-93
2022/01/16 03:22:06;;;;;;;91.30;33.03;;;2.30;99.90;;;;;;5110657;28;20051;-92
2022/01/16 03:24:37;;;;;;;104.05;34.80;;;2.30;99.90;;;;;;5110054;28;20039;-91
2022/01/16 03:27:03;;;;;;;100.18;34.67;;;2.30;99.90;;;;;;5093304;28;20040;-92
2022/01/16 03:29:29;;;;;;;109.90;37.75;;;2.30;99.90;;;;;;5092722;28;20054;-92
2022/01/16 03:31:56;;;;;;;103.13;35.08;;;2.30;99.90;;;;;;5110792;28;20038;-92
2022/01/16 03:34:22;;;;;;;107.53;35.75;;;2.40;99.90;;;;;;5101890;28;20034;-92
2022/01/16 03:36:49;;;;;;;118.07;37.10;;;2.40;99.90;;;;;;5121561;28;20561;-92
2022/01/16 03:39:15;;;;;;;125.75;38.78;;;2.40;99.90;;;;;;5113701;28;20043;-92
2022/01/16 03:41:41;;;;;;;108.75;35.70;;;2.40;99.90;;;;;;5127002;28;20032;-91
2022/01/16 03:44:08;;;;;;;128.05;36.80;;;2.50;99.90;;;;;;5095337;28;20128;-91
2022/01/16 03:46:38;;;;;;;112.97;36.97;;;2.50;99.90;;;;;;5093762;28;20408;-92
2022/01/16 03:49:06;;;;;;;101.45;36.88;;;2.50;99.90;;;;;;5093458;28;20054;-92
2022/01/16 03:51:32;;;;;;;99.35;34.85;;;2.50;99.90;;;;;;5093132;28;20114;-91
2022/01/16 03:53:58;;;;;;;105.65;34.38;;;2.50;99.90;;;;;;5110213;28;20177;-92
2022/01/16 03:56:23;;;;;;;102.57;35.05;;;2.50;99.90;;;;;;5109856;28;20035;-93
2022/01/16 03:58:49;;;;;;;98.68;34.55;;;2.50;99.90;;;;;;5110643;28;20050;-92
2022/01/16 04:01:15;;;;;;;105.75;35.22;;;2.50;99.90;;;;;;5110345;28;20048;-92
2022/01/16 04:03:40;;;;;;;96.45;33.10;;;2.60;99.90;;;;;;5109574;28;20046;-91
2022/01/16 04:06:06;;;;;;;102.57;34.35;;;2.60;99.90;;;;;;5110926;28;20059;-92
2022/01/16 04:08:32;;;;;;;107.78;34.75;;;2.60;99.90;;;;;;5113439;28;20118;-92
2022/01/16 04:10:59;;;;;;;106.90;36.17;;;2.60;99.90;;;;;;5096425;28;20036;-92
2022/01/16 04:13:25;;;;;;;107.82;38.33;;;2.60;99.90;;;;;;5096351;28;20031;-92
2022/01/16 04:15:51;;;;;;;110.25;35.97;;;2.60;99.90;;;;;;5114005;28;20066;-91
2022/01/16 04:18:17;;;;;;;99.45;36.25;;;2.70;99.90;;;;;;5096775;28;20074;-92
2022/01/16 04:20:42;;;;;;;105.43;36.40;;;2.70;99.90;;;;;;5096692;28;20050;-92
2022/01/16 04:23:10;;;;;;;106.95;36.70;;;2.70;99.90;;;;;;5113880;28;20036;-92
2022/01/16 04:25:36;;;;;;;115.70;34.30;;;2.70;99.90;;;;;;5113253;28;20501;-92
2022/01/16 04:28:03;;;;;;;103.53;36.08;;;2.70;99.90;;;;;;5096239;28;20043;-92
2022/01/16 04:30:29;;;;;;;101.38;35.17;;;2.70;99.90;;;;;;5096028;28;20084;-92
2022/01/16 04:32:55;;;;;;;104.70;36.78;;;2.70;99.90;;;;;;5113622;28;20047;-91
2022/01/16 04:35:20;;;;;;;106.40;35.80;;;2.70;99.90;;;;;;5112868;28;20044;-90
2022/01/16 04:37:46;;;;;;;91.78;34.75;;;2.80;99.90;;;;;;5112991;28;20035;-91
2022/01/16 04:40:13;;;;;;;109.03;36.35;;;2.80;99.90;;;;;;5113576;28;20088;-92
2022/01/16 04:45:23;;;;;;;100.20;36.60;;;2.80;99.90;;;;;;5119436;28;20047;-91
2022/01/16 04:47:50;;;;;;;107.70;36.88;;;2.80;99.90;;;;;;5122769;28;20489;-91
2022/01/16 04:50:16;;;;;;;108.22;38.20;;;2.80;99.90;;;;;;5093053;28;20398;-91
2022/01/16 04:52:45;;;;;;;97.75;35.30;;;2.80;99.90;;;;;;5112720;28;20101;-91
2022/01/16 04:55:12;;;;;;;106.07;37.40;;;2.90;99.90;;;;;;5096009;28;20028;-91
2022/01/16 04:57:39;;;;;;;109.90;36.65;;;2.90;99.90;;;;;;5112431;28;20074;-92
2022/01/16 05:00:14;;;;;;;99.07;36.30;;;2.90;99.90;;;;;;5112850;28;20393;-91
2022/01/16 05:02:40;;;;;;;104.85;37.30;;;2.90;99.90;;;;;;5112646;28;20127;-91
2022/01/16 05:05:07;;;;;;;104.05;37.70;;;2.90;99.90;;;;;;5095411;28;20050;-91
2022/01/16 05:07:32;;;;;;;107.80;38.80;;;2.90;99.90;;;;;;5112091;28;20047;-92
2022/01/16 05:09:58;;;;;;;107.82;38.88;;;2.90;99.90;;;;;;5112366;28;20096;-90
2022/01/16 05:12:30;;;;;;;111.20;39.00;;;3.00;99.90;;;;;;5112533;28;20040;-90
2022/01/16 05:17:40;;;;;;;98.70;36.20;;;3.00;99.90;;;;;;5111157;28;20039;-91
2022/01/16 05:20:05;;;;;;;99.95;38.58;;;3.00;99.90;;;;;;5112403;28;20122;-91
2022/01/16 05:22:31;;;;;;;101.90;37.97;;;3.00;99.90;;;;;;5112571;28;20040;-90
2022/01/16 05:24:57;;;;;;;96.97;37.33;;;3.00;99.90;;;;;;5095135;28;20193;-92
2022/01/16 05:27:22;;;;;;;90.20;36.72;;;3.00;99.90;;;;;;5095356;28;20047;-91
2022/01/16 05:29:48;;;;;;;92.00;35.38;;;3.00;99.90;;;;;;5111643;28;20501;-91
2022/01/16 05:32:16;;;;;;;103.57;38.90;;;3.00;99.90;;;;;;5112274;28;20405;-93
2022/01/16 05:34:42;;;;;;;102.35;41.35;;;3.10;99.90;;;;;;5111673;28;20032;-91
2022/01/16 05:37:07;;;;;;;90.38;35.42;;;3.10;99.90;;;;;;5110968;28;20060;-92
2022/01/16 05:39:34;;;;;;;92.90;36.75;;;3.10;99.90;;;;;;5112047;28;20040;-91
2022/01/16 05:42:01;;;;;;;95.90;35.92;;;3.10;99.90;;;;;;5112501;28;20040;-91
2022/01/16 05:44:26;;;;;;;94.68;36.60;;;3.10;99.90;;;;;;5094890;28;20851;-91
2022/01/16 05:46:52;;;;;;;99.22;39.15;;;3.10;99.90;;;;;;5112054;28;20161;-92
2022/01/16 05:49:18;;;;;;;90.80;34.85;;;3.10;99.90;;;;;;5111513;28;20047;-91
2022/01/16 05:51:43;;;;;;;103.43;37.83;;;3.10;99.90;;;;;;5111882;28;20035;-90
2022/01/16 05:54:09;;;;;;;98.70;37.13;;;3.10;99.90;;;;;;5094577;28;20036;-91
2022/01/16 05:56:34;;;;;;;87.20;34.47;;;3.10;99.90;;;;;;5094707;28;20476;-91
2022/01/16 05:59:00;;;;;;;94.45;36.38;;;3.10;99.90;;;;;;5111528;28;20043;-91
2022/01/16 06:01:26;;;;;;;92.30;35.15;;;3.20;99.90;;;;;;5111801;28;20381;-91
2022/01/16 06:03:51;;;;;;;97.80;36.92;;;3.20;99.90;;;;;;5094262;28;20044;-91
2022/01/16 06:06:17;;;;;;;98.55;38.10;;;3.10;99.90;;;;;;5111521;28;20047;-91
2022/01/16 06:08:43;;;;;;;109.07;39.58;;;3.20;99.90;;;;;;5110823;28;20052;-91
2022/01/16 06:11:09;;;;;;;97.47;36.85;;;3.10;99.90;;;;;;5094466;28;20040;-91
2022/01/16 06:13:34;;;;;;;100.35;38.22;;;3.20;99.90;;;;;;5111085;28;20088;-91
2022/01/16 06:16:02;;;;;;;103.43;38.22;;;3.20;99.90;;;;;;5111420;28;20038;-91
2022/01/16 06:18:27;;;;;;;98.45;37.72;;;3.20;99.90;;;;;;5094232;28;20507;-92
2022/01/16 06:20:53;;;;;;;108.13;38.78;;;3.20;99.90;;;;;;5094741;28;20119;-92
2022/01/16 06:23:19;;;;;;;97.55;39.63;;;3.30;99.90;;;;;;5110582;28;20051;-91
2022/01/16 06:25:44;;;;;;;104.72;37.35;;;3.20;99.90;;;;;;5111425;28;20086;-91
2022/01/16 06:28:10;;;;;;;95.72;37.58;;;3.20;99.90;;;;;;5110726;28;20036;-91
2022/01/16 06:30:36;;;;;;;101.72;36.25;;;3.30;99.90;;;;;;5110119;28;20485;-91
2022/01/16 06:33:05;;;;;;;103.53;38.38;;;3.30;99.90;;;;;;5093994;28;20032;-92
2022/01/16 06:35:31;;;;;;;105.05;38.95;;;3.30;99.90;;;;;;5093201;28;20032;-91
2022/01/16 06:37:56;;;;;;;98.07;35.88;;;3.30;99.90;;;;;;5093432;28;20408;-92
2022/01/16 06:40:22;;;;;;;108.40;39.40;;;3.30;99.90;;;;;;5110898;28;20126;-92
2022/01/16 06:42:48;;;;;;;102.72;40.58;;;3.30;99.90;;;;;;5110912;28;20039;-92
2022/01/16 06:45:14;;;;;;;100.68;36.42;;;3.30;99.90;;;;;;5110501;28;20105;-92
2022/01/16 06:47:39;;;;;;;111.15;38.60;;;3.30;99.90;;;;;;5104691;28;20032;-92
2022/01/16 06:50:07;;;;;;;102.75;38.28;;;3.30;99.90;;;;;;5081774;28;20046;-91
2022/01/16 06:52:33;;;;;;;98.55;37.58;;;3.40;99.90;;;;;;5100836;28;20473;-91
2022/01/16 06:54:59;;;;;;;106.13;39.08;;;3.40;99.90;;;;;;5084259;28;20126;-91
2022/01/16 06:57:24;;;;;;;110.93;40.42;;;3.40;99.90;;;;;;5082332;28;20114;-91
2022/01/16 06:59:50;;;;;;;105.40;39.10;;;3.40;99.90;;;;;;5100077;28;20088;-92
2022/01/16 07:02:17;;;;;;;96.47;34.55;;;3.50;99.90;;;;;;5093777;28;20039;-92
2022/01/16 07:04:46;;;;;;;99.72;36.40;;;3.40;99.90;;;;;;5110045;28;20099;-91
2022/01/16 07:07:12;;;;;;;95.57;37.42;;;3.50;99.90;;;;;;5110761;28;20040;-91
2022/01/16 07:09:39;;;;;;;105.40;36.15;;;3.50;99.90;;;;;;5111256;28;20173;-91
2022/01/16 07:12:06;;;;;;;88.25;36.15;;;3.50;99.90;;;;;;5111761;28;20171;-91
2022/01/16 07:14:31;;;;;;;87.53;33.45;;;3.50;99.90;;;;;;5119901;28;20035;-91
2022/01/16 07:16:57;;;;;;;101.38;36.17;;;3.50;99.90;;;;;;5100204;28;20036;-91
2022/01/16 07:19:22;;;;;;;96.50;34.97;;;3.50;99.90;;;;;;5107818;28;20067;-91
2022/01/16 07:21:48;;;;;;;102.20;37.65;;;3.60;99.90;;;;;;5110216;28;20077;-92
2022/01/16 07:24:15;;;;;;;97.82;34.42;;;3.60;99.90;;;;;;5110669;28;20039;-92
2022/01/16 07:26:45;;;;;;;89.50;34.33;;;3.60;99.90;;;;;;5109802;28;20124;-91
2022/01/16 07:29:11;;;;;;;96.93;36.88;;;3.60;99.90;;;;;;5092562;28;20046;-91
2022/01/16 07:31:40;;;;;;;96.32;37.40;;;3.70;99.90;;;;;;5093691;28;20463;-92
2022/01/16 07:34:07;;;;;;;98.43;33.72;;;3.60;99.90;;;;;;5105080;28;20395;-91
2022/01/16 07:36:32;;;;;;;93.68;36.58;;;3.70;99.90;;;;;;5109002;28;20049;-91
2022/01/16 07:38:58;;;;;;;101.40;36.65;;;3.70;99.90;;;;;;5110364;28;20143;-91
2022/01/16 07:41:24;;;;;;;93.47;36.92;;;3.70;99.90;;;;;;5111968;28;20039;-91
2022/01/16 07:43:50;;;;;;;94.72;38.63;;;3.70;99.90;;;;;;5097188;28;20035;-90
2022/01/16 07:46:19;;;;;;;89.28;35.67;;;3.70;99.90;;;;;;5097492;28;20095;-91
2022/01/16 07:48:44;;;;;;;86.85;35.70;;;3.70;99.90;;;;;;5096821;28;20107;-90
2022/01/16 07:51:10;;;;;;;96.13;35.28;;;3.80;99.90;;;;;;5113807;28;20043;-90
2022/01/16 07:53:37;;;;;;;100.93;35.47;;;3.80;99.90;;;;;;5096851;28;20042;-91
2022/01/16 07:56:03;;;;;;;97.57;38.13;;;3.80;99.90;;;;;;5097017;28;20043;-90
2022/01/16 07:58:29;;;;;;;104.38;37.30;;;3.80;99.90;;;;;;5096724;28;20050;-91
2022/01/16 08:00:56;;;;;;;96.95;36.22;;;3.80;99.90;;;;;;5097695;28;20104;-90
2022/01/16 08:03:22;;;;;;;97.15;36.75;;;3.80;99.90;;;;;;5113873;28;20039;-91
2022/01/16 08:05:48;;;;;;;89.45;36.60;;;3.90;99.90;;;;;;5096957;28;20046;-91
2022/01/16 08:08:14;;;;;;;96.72;37.55;;;3.90;99.90;;;;;;5104283;28;20044;-91
2022/01/16 08:10:40;;;;;;;85.80;35.72;;;3.90;99.90;;;;;;5093213;28;20062;-91
2022/01/16 08:13:05;;;;;;;93.65;37.53;;;3.90;99.90;;;;;;5109749;28;20036;-92
2022/01/16 08:15:31;;;;;;;98.88;37.83;;;4.00;99.90;;;;;;5096896;28;20429;-91
2022/01/16 08:17:57;;;;;;;82.43;35.20;;;4.10;99.90;;;;;;5096740;28;20032;-91
2022/01/16 08:20:22;;;;;;;85.47;34.75;;;4.00;99.90;;;;;;5113677;28;20130;-90
2022/01/16 08:22:48;;;;;;;98.15;39.42;;;4.10;99.90;;;;;;5092895;28;20048;-91
2022/01/16 08:25:14;;;;;;;94.60;38.95;;;4.10;99.90;;;;;;5112662;28;20051;-91
2022/01/16 08:27:40;;;;;;;86.55;36.63;;;4.10;99.90;;;;;;5092697;28;20485;-91
2022/01/16 08:30:07;;;;;;;93.50;40.55;;;4.10;99.90;;;;;;5104957;28;20069;-91
2022/01/16 08:32:34;;;;;;;86.90;36.80;;;4.20;99.90;;;;;;5090937;28;20063;-93
2022/01/16 08:35:00;;;;;;;102.13;39.45;;;4.20;99.90;;;;;;5113241;28;20404;-91
2022/01/16 08:37:26;;;;;;;94.03;39.35;;;4.20;99.90;;;;;;5112016;28;20062;-91
2022/01/16 08:39:52;;;;;;;90.82;37.17;;;4.20;99.90;;;;;;5096351;28;20062;-90
2022/01/16 08:42:17;;;;;;;91.32;37.45;;;4.20;99.90;;;;;;5096405;28;20080;-92
2022/01/16 08:44:43;;;;;;;93.53;42.25;;;4.30;99.90;;;;;;5096272;28;20472;-90
2022/01/16 08:47:09;;;;;;;92.75;38.35;;;4.30;99.90;;;;;;5096224;28;20050;-91
2022/01/16 08:49:38;;;;;;;89.22;37.85;;;4.40;99.90;;;;;;5105756;28;20044;-91
2022/01/16 08:52:04;;;;;;;83.95;38.42;;;4.30;99.90;;;;;;5109523;28;20039;-91
2022/01/16 08:54:30;;;;;;;90.57;38.25;;;4.40;99.90;;;;;;5095203;28;20039;-91
2022/01/16 08:56:56;;;;;;;89.55;38.55;;;4.40;99.90;;;;;;5104279;28;20040;-90
2022/01/16 08:59:21;;;;;;;94.32;41.47;;;4.40;99.90;;;;;;5102293;28;20120;-91
2022/01/16 09:01:47;;;;;;;86.25;39.05;;;4.40;99.90;;;;;;5086399;28;20407;-91
2022/01/16 09:04:12;;;;;;;92.78;39.10;;;4.40;99.90;;;;;;5096311;28;20089;-91
2022/01/16 09:06:38;;;;;;;87.05;38.25;;;4.50;99.90;;;;;;5095584;28;20407;-90
2022/01/16 09:09:04;;;;;;;82.05;37.97;;;4.50;99.90;;;;;;5135092;28;20035;-91
2022/01/16 09:11:29;;;;;;;82.55;39.88;;;4.50;99.90;;;;;;5133052;28;20130;-91
2022/01/16 09:13:58;;;;;;;77.38;37.80;;;4.50;99.90;;;;;;5112173;28;20063;-91
2022/01/16 09:16:24;;;;;;;87.38;38.85;;;4.60;99.90;;;;;;5129882;28;20039;-90
2022/01/16 09:18:50;;;;;;;82.25;36.92;;;4.60;99.90;;;;;;5099992;28;20027;-91
2022/01/16 09:21:17;;;;;;;77.10;36.38;;;4.60;99.90;;;;;;5096318;28;20066;-91
2022/01/16 09:23:47;;;;;;;79.57;36.75;;;4.70;99.90;;;;;;5095728;28;20623;-90
2022/01/16 09:26:14;;;;;;;76.93;37.00;;;4.70;99.90;;;;;;5095953;28;20050;-91
2022/01/16 09:28:43;;;;;;;70.75;34.45;;;4.70;99.90;;;;;;5095313;28;20122;-90
2022/01/16 09:31:09;;;;;;;78.68;36.95;;;4.80;99.90;;;;;;5095026;28;20040;-89
2022/01/16 09:33:35;;;;;;;71.97;35.95;;;4.80;99.90;;;;;;5112154;28;20512;-90
2022/01/16 09:36:03;;;;;;;83.00;36.00;;;4.80;99.90;;;;;;5094125;28;20531;-90
2022/01/16 09:38:29;;;;;;;74.28;38.90;;;4.80;99.90;;;;;;5106582;28;20028;-91
2022/01/16 09:40:56;;;;;;;68.13;32.67;;;4.90;99.90;;;;;;5102576;28;20053;-91
2022/01/16 09:43:22;;;;;;;74.10;35.92;;;4.90;99.90;;;;;;5083786;28;20043;-91
2022/01/16 09:45:48;;;;;;;66.88;36.35;;;4.90;99.90;;;;;;5084291;28;20035;-91
2022/01/16 09:48:17;;;;;;;71.38;36.97;;;4.90;99.90;;;;;;5102171;28;20051;-91
2022/01/16 09:50:43;;;;;;;68.50;34.70;;;5.00;99.90;;;;;;5100530;28;20472;-90
2022/01/16 09:53:10;;;;;;;73.15;34.33;;;5.00;99.90;;;;;;5101065;28;20063;-90
2022/01/16 09:55:36;;;;;;;72.05;35.45;;;5.00;99.90;;;;;;5106537;28;20024;-91
2022/01/16 09:58:01;;;;;;;67.35;36.22;;;5.00;99.90;;;;;;5087112;28;20570;-91
2022/01/16 10:00:28;;;;;;;64.70;33.97;;;5.10;99.90;;;;;;5093690;28;20048;-91
2022/01/16 10:02:54;;;;;;;69.28;38.45;;;5.10;99.90;;;;;;5098491;28;20051;-91
2022/01/16 10:05:31;;;;;;;73.15;35.08;;;5.10;99.90;;;;;;5110620;28;20120;-90
2022/01/16 10:07:59;;;;;;;61.63;34.15;;;5.10;99.90;;;;;;5111489;28;20099;-91
2022/01/16 10:10:37;;;;;;;65.95;35.95;;;5.10;99.90;;;;;;5094746;28;20412;-90
2022/01/16 10:13:38;;;;;;;64.80;34.17;;;5.20;99.90;;;;;;5098560;28;20036;-90
2022/01/16 10:16:04;;;;;;;58.03;31.40;;;5.20;99.90;;;;;;5091653;28;20039;-91
2022/01/16 10:18:34;;;;;;;65.22;34.85;;;5.20;99.90;;;;;;5094327;28;20031;-91
2022/01/16 10:21:00;;;;;;;62.65;34.17;;;5.30;99.90;;;;;;5111481;28;20043;-91
2022/01/16 10:23:25;;;;;;;57.20;34.08;;;5.30;99.90;;;;;;5111098;28;20058;-91
2022/01/16 10:25:51;;;;;;;53.85;31.88;;;5.30;99.90;;;;;;5111293;28;20039;-91
2022/01/16 10:28:22;;;;;;;58.97;32.22;;;5.40;99.90;;;;;;5093727;28;20031;-91
2022/01/16 10:30:51;;;;;;;60.08;32.40;;;5.40;99.90;;;;;;5110585;28;20043;-92
2022/01/16 10:33:19;;;;;;;55.17;31.60;;;5.40;99.90;;;;;;5110811;28;20416;-91
2022/01/16 10:35:47;;;;;;;59.20;33.38;;;5.40;99.90;;;;;;5111094;28;20118;-92
2022/01/16 10:38:28;;;;;;;60.33;33.05;;;5.40;99.90;;;;;;5093998;28;20039;-91
2022/01/16 10:40:56;;;;;;;54.50;32.15;;;5.40;99.90;;;;;;5111172;28;20042;-91
2022/01/16 10:43:45;;;;;;;52.88;32.08;;;5.50;99.90;;;;;;5110537;28;20032;-90
2022/01/16 10:46:13;;;;;;;57.88;32.95;;;5.50;99.90;;;;;;5100679;28;20055;-91
2022/01/16 10:48:40;;;;;;;50.45;29.92;;;5.50;99.90;;;;;;5093822;28;20031;-90
2022/01/16 10:51:19;;;;;;;55.90;31.20;;;5.50;99.90;;;;;;5093751;28;20408;-91
2022/01/16 10:53:44;;;;;;;52.80;30.27;;;5.50;99.90;;;;;;5093688;28;20546;-92
2022/01/16 10:56:10;;;;;;;49.13;30.58;;;5.60;99.90;;;;;;5111050;28;20039;-92
2022/01/16 10:58:35;;;;;;;48.42;29.70;;;5.60;99.90;;;;;;5093369;28;20147;-90
2022/01/16 11:01:07;;;;;;;53.83;30.45;;;5.60;99.90;;;;;;5110824;28;20035;-91
2022/01/16 11:03:58;;;;;;;53.80;30.77;;;5.60;99.90;;;;;;5109715;28;20118;-91
2022/01/16 11:06:27;;;;;;;50.80;31.05;;;5.60;99.90;;;;;;5094057;28;20078;-91
2022/01/16 11:08:57;;;;;;;50.50;29.42;;;5.70;99.90;;;;;;5110548;28;20081;-91
2022/01/16 11:11:27;;;;;;;49.33;29.92;;;5.60;99.90;;;;;;5108085;28;20035;-91
2022/01/16 11:13:55;;;;;;;52.88;30.85;;;5.60;99.90;;;;;;5109583;28;20078;-91
2022/01/16 11:16:23;;;;;;;48.60;29.70;;;5.70;99.90;;;;;;5093673;28;20039;-91
2022/01/16 11:18:51;;;;;;;47.08;29.92;;;5.70;99.90;;;;;;5093345;28;20067;-91
2022/01/16 11:21:31;;;;;;;48.70;28.90;;;5.70;99.90;;;;;;5093429;28;20067;-91
2022/01/16 11:24:22;;;;;;;46.10;28.63;;;5.70;99.90;;;;;;5110308;28;20040;-91
2022/01/16 11:26:47;;;;;;;50.03;27.88;;;5.70;99.90;;;;;;5110663;28;20126;-90
2022/01/16 11:29:13;;;;;;;50.25;30.75;;;5.70;99.90;;;;;;5092946;28;20093;-91
2022/01/16 11:31:40;;;;;;;48.30;28.73;;;5.80;99.90;;;;;;5110132;28;20036;-91
2022/01/16 11:34:06;;;;;;;46.78;28.48;;;5.80;99.90;;;;;;5093286;28;20039;-91
2022/01/16 11:36:32;;;;;;;46.63;27.35;;;5.80;99.90;;;;;;5109245;28;20051;-91
2022/01/16 11:39:00;;;;;;;46.47;28.00;;;5.80;99.90;;;;;;5092857;28;20096;-91
2022/01/16 11:41:33;;;;;;;42.17;26.95;;;5.80;99.90;;;;;;5110324;28;20038;-92
2022/01/16 11:44:01;;;;;;;41.78;26.92;;;5.90;99.90;;;;;;5093411;28;20051;-91
2022/01/16 11:46:29;;;;;;;41.15;25.70;;;5.90;99.90;;;;;;5110584;28;20500;-92
2022/01/16 11:48:58;;;;;;;46.83;25.17;;;5.90;99.90;;;;;;5110148;28;20035;-91
2022/01/16 11:51:35;;;;;;;37.70;24.33;;;5.90;99.90;;;;;;5092706;28;20564;-91
2022/01/16 11:54:01;;;;;;;39.13;24.45;;;6.00;99.90;;;;;;5110603;28;20131;-92
2022/01/16 11:56:41;;;;;;;38.25;23.83;;;6.00;99.90;;;;;;5110056;28;20556;-92
2022/01/16 11:59:13;;;;;;;37.88;22.88;;;6.00;99.90;;;;;;5093094;28;20488;-92
2022/01/16 12:01:52;;;;;;;34.90;22.17;;;6.00;99.90;;;;;;5093374;28;20599;-91
2022/01/16 12:04:30;;;;;;;33.92;21.65;;;6.00;99.90;;;;;;5110158;28;20047;-91
2022/01/16 12:07:04;;;;;;;36.08;22.40;;;6.10;99.90;;;;;;5110281;28;20035;-91
2022/01/16 12:09:37;;;;;;;31.17;20.48;;;6.10;99.90;;;;;;5093263;28;20045;-91
2022/01/16 12:12:23;;;;;;;36.30;20.67;;;6.10;99.90;;;;;;5093009;28;20043;-91
2022/01/16 12:14:56;;;;;;;33.72;19.85;;;6.20;99.90;;;;;;5109782;28;20528;-91
2022/01/16 12:17:51;;;;;;;32.08;19.33;;;6.20;99.90;;;;;;5093125;28;20771;-91
2022/01/16 12:20:20;;;;;;;33.65;18.45;;;6.20;99.90;;;;;;5110204;28;20048;-91
2022/01/16 12:23:04;;;;;;;26.95;16.13;;;6.20;99.90;;;;;;5110207;28;20431;-91
2022/01/16 12:25:36;;;;;;;22.30;13.10;;;6.30;99.90;;;;;;5109298;28;20123;-91
2022/01/16 12:28:05;;;;;;;26.00;13.18;;;6.30;99.90;;;;;;5112216;28;20050;-91
2022/01/16 12:30:41;;;;;;;20.33;12.85;;;6.40;99.90;;;;;;5096214;28;20047;-91
2022/01/16 12:33:21;;;;;;;22.23;13.00;;;6.40;99.90;;;;;;5096972;28;20042;-90
2022/01/16 12:35:55;;;;;;;20.55;12.07;;;6.40;99.90;;;;;;5097166;28;20031;-91
2022/01/16 12:38:32;;;;;;;23.15;12.63;;;6.50;99.90;;;;;;5097707;28;20039;-91
2022/01/16 12:41:21;;;;;;;20.70;11.75;;;6.50;99.90;;;;;;5108675;28;20480;-90
2022/01/16 12:44:12;;;;;;;21.58;13.27;;;6.50;99.90;;;;;;5112080;28;20125;-91
2022/01/16 12:46:46;;;;;;;25.25;13.43;;;6.60;99.90;;;;;;5113952;28;20049;-91
2022/01/16 12:49:15;;;;;;;18.67;12.50;;;6.60;99.90;;;;;;5096162;28;20039;-91
2022/01/16 12:51:43;;;;;;;22.63;12.80;;;6.60;99.90;;;;;;5113292;28;20088;-91
2022/01/16 12:54:18;;;;;;;21.23;12.73;;;6.70;99.90;;;;;;5112944;28;20035;-91
2022/01/16 12:56:50;;;;;;;17.25;10.93;;;6.70;99.90;;;;;;5096375;28;20118;-91
2022/01/16 12:59:21;;;;;;;21.48;11.50;;;6.70;99.90;;;;;;5113041;28;20044;-91
2022/01/16 13:01:49;;;;;;;19.20;11.10;;;6.80;99.90;;;;;;5095836;28;20039;-91
2022/01/16 13:04:20;;;;;;;23.23;12.02;;;6.80;99.90;;;;;;5095880;28;20047;-91
2022/01/16 13:06:45;;;;;;;18.67;11.00;;;6.80;99.90;;;;;;5112994;28;20044;-91
2022/01/16 13:09:12;;;;;;;21.23;12.43;;;6.80;99.90;;;;;;5112972;28;20039;-90
2022/01/16 13:11:45;;;;;;;20.70;10.68;;;6.80;99.90;;;;;;5095906;28;20171;-90
2022/01/16 13:14:13;;;;;;;21.55;11.45;;;6.80;99.90;;;;;;5112775;28;20089;-91
2022/01/16 13:16:43;;;;;;;21.27;11.43;;;6.90;99.90;;;;;;5095738;28;20088;-91